sensor_id;sensor_type;location;lat;lon;timestamp;temperature;humidity
11264;DHT22;5689;48.798;9.070;2022-07-03T00:01:56;20.20;97.60
11264;DHT22;5689;48.798;9.070;2022-07-03T00:04:24;20.20;97.80
11264;DHT22;5689;48.798;9.070;2022-07-03T00:06:53;20.30;97.90
11264;DHT22;5689;48.798;9.070;2022-07-03T00:09:22;20.20;97.90
11264;DHT22;5689;48.798;9.070;2022-07-03T00:11:50;20.30;97.90
11264;DHT22;5689;48.798;9.070;2022-07-03T00:14:18;20.30;98.10
11264;DHT22;5689;48.798;9.070;2022-07-03T00:16:46;20.20;98.30
11264;DHT22;5689;48.798;9.070;2022-07-03T00:19:14;20.20;98.50
11264;DHT22;5689;48.798;9.070;2022-07-03T00:21:45;20.20;98.60
11264;DHT22;5689;48.798;9.070;2022-07-03T00:24:20;20.10;98.80
11264;DHT22;5689;48.798;9.070;2022-07-03T00:26:59;20.10;99.00
11264;DHT22;5689;48.798;9.070;2022-07-03T00:29:36;20.10;99.10
11264;DHT22;5689;48.798;9.070;2022-07-03T00:32:06;20.10;99.30
11264;DHT22;5689;48.798;9.070;2022-07-03T00:34:36;20.10;99.40
11264;DHT22;5689;48.798;9.070;2022-07-03T00:37:06;20.10;99.40
11264;DHT22;5689;48.798;9.070;2022-07-03T00:39:36;20.20;99.60
11264;DHT22;5689;48.798;9.070;2022-07-03T00:42:08;20.10;99.70
11264;DHT22;5689;48.798;9.070;2022-07-03T00:44:50;20.10;99.90
11264;DHT22;5689;48.798;9.070;2022-07-03T00:47:19;20.00;99.90
11264;DHT22;5689;48.798;9.070;2022-07-03T00:49:48;20.20;99.90
11264;DHT22;5689;48.798;9.070;2022-07-03T00:52:17;20.10;99.90
11264;DHT22;5689;48.798;9.070;2022-07-03T00:54:52;20.10;99.90
11264;DHT22;5689;48.798;9.070;2022-07-03T00:57:22;20.10;99.90
11264;DHT22;5689;48.798;9.070;2022-07-03T00:59:51;20.10;99.90
11264;DHT22;5689;48.798;9.070;2022-07-03T01:02:38;20.10;99.90
11264;DHT22;5689;48.798;9.070;2022-07-03T01:05:12;20.10;99.90
11264;DHT22;5689;48.798;9.070;2022-07-03T01:07:51;20.10;99.90
11264;DHT22;5689;48.798;9.070;2022-07-03T01:10:31;20.10;99.90
11264;DHT22;5689;48.798;9.070;2022-07-03T01:13:07;20.00;99.90
11264;DHT22;5689;48.798;9.070;2022-07-03T01:15:50;20.10;99.90
11264;DHT22;5689;48.798;9.070;2022-07-03T01:18:30;20.00;99.90
11264;DHT22;5689;48.798;9.070;2022-07-03T01:21:06;20.10;99.90
11264;DHT22;5689;48.798;9.070;2022-07-03T01:23:56;20.00;99.90
11264;DHT22;5689;48.798;9.070;2022-07-03T01:26:36;20.00;99.90
11264;DHT22;5689;48.798;9.070;2022-07-03T01:29:08;20.10;99.90
11264;DHT22;5689;48.798;9.070;2022-07-03T01:31:38;20.00;99.90
11264;DHT22;5689;48.798;9.070;2022-07-03T01:34:11;20.00;99.90
11264;DHT22;5689;48.798;9.070;2022-07-03T01:36:41;20.00;99.90
11264;DHT22;5689;48.798;9.070;2022-07-03T01:39:10;20.00;99.90
11264;DHT22;5689;48.798;9.070;2022-07-03T01:41:43;20.00;99.90
11264;DHT22;5689;48.798;9.070;2022-07-03T01:44:18;19.90;99.90
11264;DHT22;5689;48.798;9.070;2022-07-03T01:46:49;19.90;99.90
11264;DHT22;5689;48.798;9.070;2022-07-03T01:49:18;19.80;99.90
11264;DHT22;5689;48.798;9.070;2022-07-03T01:51:49;19.80;99.90
11264;DHT22;5689;48.798;9.070;2022-07-03T01:54:19;19.80;99.90
11264;DHT22;5689;48.798;9.070;2022-07-03T01:56:49;19.80;99.90
11264;DHT22;5689;48.798;9.070;2022-07-03T01:59:17;19.70;99.90
11264;DHT22;5689;48.798;9.070;2022-07-03T02:01:51;19.70;99.90
11264;DHT22;5689;48.798;9.070;2022-07-03T02:04:24;19.60;99.90
11264;DHT22;5689;48.798;9.070;2022-07-03T02:07:02;19.60;99.90
11264;DHT22;5689;48.798;9.070;2022-07-03T02:09:42;19.50;99.90
11264;DHT22;5689;48.798;9.070;2022-07-03T02:12:13;19.50;99.90
11264;DHT22;5689;48.798;9.070;2022-07-03T02:14:47;19.50;99.90
11264;DHT22;5689;48.798;9.070;2022-07-03T02:17:17;19.40;99.90
11264;DHT22;5689;48.798;9.070;2022-07-03T02:19:53;19.40;99.90
11264;DHT22;5689;48.798;9.070;2022-07-03T02:22:27;19.40;99.90
11264;DHT22;5689;48.798;9.070;2022-07-03T02:25:01;19.30;99.90
11264;DHT22;5689;48.798;9.070;2022-07-03T02:27:41;19.30;99.90
11264;DHT22;5689;48.798;9.070;2022-07-03T02:30:11;19.30;99.90
11264;DHT22;5689;48.798;9.070;2022-07-03T02:32:43;19.20;99.90
11264;DHT22;5689;48.798;9.070;2022-07-03T02:35:16;19.20;99.90
11264;DHT22;5689;48.798;9.070;2022-07-03T02:37:47;19.30;99.90
11264;DHT22;5689;48.798;9.070;2022-07-03T02:40:23;19.20;99.90
11264;DHT22;5689;48.798;9.070;2022-07-03T02:43:02;19.20;99.90
11264;DHT22;5689;48.798;9.070;2022-07-03T02:45:40;19.10;99.90
11264;DHT22;5689;48.798;9.070;2022-07-03T02:48:21;19.10;99.90
11264;DHT22;5689;48.798;9.070;2022-07-03T02:50:57;19.10;99.90
11264;DHT22;5689;48.798;9.070;2022-07-03T02:53:38;19.10;99.90
11264;DHT22;5689;48.798;9.070;2022-07-03T02:56:15;19.20;99.90
11264;DHT22;5689;48.798;9.070;2022-07-03T02:59:01;19.20;99.90
11264;DHT22;5689;48.798;9.070;2022-07-03T03:01:37;19.20;99.90
11264;DHT22;5689;48.798;9.070;2022-07-03T03:04:14;19.10;99.90
11264;DHT22;5689;48.798;9.070;2022-07-03T03:06:47;19.10;99.90
11264;DHT22;5689;48.798;9.070;2022-07-03T03:09:20;19.10;99.90
11264;DHT22;5689;48.798;9.070;2022-07-03T03:11:52;19.10;99.90
11264;DHT22;5689;48.798;9.070;2022-07-03T03:14:29;19.00;99.90
11264;DHT22;5689;48.798;9.070;2022-07-03T03:17:02;19.00;99.90
11264;DHT22;5689;48.798;9.070;2022-07-03T03:19:38;19.00;99.90
11264;DHT22;5689;48.798;9.070;2022-07-03T03:22:28;19.10;99.90
11264;DHT22;5689;48.798;9.070;2022-07-03T03:24:56;19.20;99.90
11264;DHT22;5689;48.798;9.070;2022-07-03T03:27:24;19.20;99.90
11264;DHT22;5689;48.798;9.070;2022-07-03T03:29:54;19.00;99.90
11264;DHT22;5689;48.798;9.070;2022-07-03T03:32:23;18.90;99.90
11264;DHT22;5689;48.798;9.070;2022-07-03T03:34:52;18.90;99.90
11264;DHT22;5689;48.798;9.070;2022-07-03T03:37:20;18.80;99.90
11264;DHT22;5689;48.798;9.070;2022-07-03T03:39:48;18.80;99.90
11264;DHT22;5689;48.798;9.070;2022-07-03T03:42:16;18.80;99.90
11264;DHT22;5689;48.798;9.070;2022-07-03T03:44:45;18.80;99.90
11264;DHT22;5689;48.798;9.070;2022-07-03T03:47:14;18.70;99.90
11264;DHT22;5689;48.798;9.070;2022-07-03T03:49:42;18.80;99.90
11264;DHT22;5689;48.798;9.070;2022-07-03T03:52:11;18.80;99.90
11264;DHT22;5689;48.798;9.070;2022-07-03T03:54:39;18.80;99.90
11264;DHT22;5689;48.798;9.070;2022-07-03T03:57:25;18.90;99.90
11264;DHT22;5689;48.798;9.070;2022-07-03T03:59:54;18.90;99.90
11264;DHT22;5689;48.798;9.070;2022-07-03T04:02:24;18.90;99.90
11264;DHT22;5689;48.798;9.070;2022-07-03T04:04:53;19.00;99.90
11264;DHT22;5689;48.798;9.070;2022-07-03T04:07:21;19.10;99.90
11264;DHT22;5689;48.798;9.070;2022-07-03T04:09:49;19.10;99.90
11264;DHT22;5689;48.798;9.070;2022-07-03T04:12:17;19.20;99.90
11264;DHT22;5689;48.798;9.070;2022-07-03T04:14:45;19.30;99.90
11264;DHT22;5689;48.798;9.070;2022-07-03T04:17:13;19.30;99.90
11264;DHT22;5689;48.798;9.070;2022-07-03T04:19:43;19.40;99.90
11264;DHT22;5689;48.798;9.070;2022-07-03T04:22:11;19.50;99.90
11264;DHT22;5689;48.798;9.070;2022-07-03T04:24:39;19.70;99.90
11264;DHT22;5689;48.798;9.070;2022-07-03T04:27:07;19.80;99.90
11264;DHT22;5689;48.798;9.070;2022-07-03T04:29:36;20.10;99.90
11264;DHT22;5689;48.798;9.070;2022-07-03T04:32:04;20.20;99.90
11264;DHT22;5689;48.798;9.070;2022-07-03T04:34:33;20.10;99.90
11264;DHT22;5689;48.798;9.070;2022-07-03T04:37:03;20.10;99.90
11264;DHT22;5689;48.798;9.070;2022-07-03T04:39:31;20.20;99.90
11264;DHT22;5689;48.798;9.070;2022-07-03T04:41:59;20.20;99.90
11264;DHT22;5689;48.798;9.070;2022-07-03T04:44:27;20.20;99.90
11264;DHT22;5689;48.798;9.070;2022-07-03T04:46:56;20.20;99.90
11264;DHT22;5689;48.798;9.070;2022-07-03T04:49:24;20.00;99.90
11264;DHT22;5689;48.798;9.070;2022-07-03T04:51:52;20.00;99.90
11264;DHT22;5689;48.798;9.070;2022-07-03T04:54:21;20.10;99.90
11264;DHT22;5689;48.798;9.070;2022-07-03T04:56:50;20.00;99.90
11264;DHT22;5689;48.798;9.070;2022-07-03T04:59:18;20.00;99.90
11264;DHT22;5689;48.798;9.070;2022-07-03T05:01:46;20.00;99.90
11264;DHT22;5689;48.798;9.070;2022-07-03T05:04:16;20.10;99.90
11264;DHT22;5689;48.798;9.070;2022-07-03T05:06:44;20.10;99.90
11264;DHT22;5689;48.798;9.070;2022-07-03T05:09:13;20.10;99.90
11264;DHT22;5689;48.798;9.070;2022-07-03T05:11:42;20.20;99.90
11264;DHT22;5689;48.798;9.070;2022-07-03T05:14:11;20.40;99.90
11264;DHT22;5689;48.798;9.070;2022-07-03T05:16:39;20.30;99.90
11264;DHT22;5689;48.798;9.070;2022-07-03T05:19:07;20.30;99.90
11264;DHT22;5689;48.798;9.070;2022-07-03T05:21:35;20.30;99.90
11264;DHT22;5689;48.798;9.070;2022-07-03T05:24:04;20.50;99.90
11264;DHT22;5689;48.798;9.070;2022-07-03T05:26:35;20.70;99.90
11264;DHT22;5689;48.798;9.070;2022-07-03T05:29:04;20.90;99.90
11264;DHT22;5689;48.798;9.070;2022-07-03T05:31:32;21.20;99.90
11264;DHT22;5689;48.798;9.070;2022-07-03T05:34:00;21.50;99.90
11264;DHT22;5689;48.798;9.070;2022-07-03T05:36:29;21.60;99.90
11264;DHT22;5689;48.798;9.070;2022-07-03T05:38:57;21.70;99.90
11264;DHT22;5689;48.798;9.070;2022-07-03T05:41:42;21.90;99.90
11264;DHT22;5689;48.798;9.070;2022-07-03T05:44:12;22.20;99.90
11264;DHT22;5689;48.798;9.070;2022-07-03T05:46:40;22.30;99.90
11264;DHT22;5689;48.798;9.070;2022-07-03T05:49:08;22.20;99.90
11264;DHT22;5689;48.798;9.070;2022-07-03T05:51:36;22.20;99.90
11264;DHT22;5689;48.798;9.070;2022-07-03T05:54:05;22.00;99.90
11264;DHT22;5689;48.798;9.070;2022-07-03T05:56:33;22.10;99.90
11264;DHT22;5689;48.798;9.070;2022-07-03T05:59:01;22.20;99.90
11264;DHT22;5689;48.798;9.070;2022-07-03T06:01:31;22.30;99.90
11264;DHT22;5689;48.798;9.070;2022-07-03T06:04:01;22.40;99.90
11264;DHT22;5689;48.798;9.070;2022-07-03T06:06:32;22.70;99.90
11264;DHT22;5689;48.798;9.070;2022-07-03T06:09:00;22.80;99.90
11264;DHT22;5689;48.798;9.070;2022-07-03T06:11:28;23.20;99.90
11264;DHT22;5689;48.798;9.070;2022-07-03T06:13:56;23.40;99.90
11264;DHT22;5689;48.798;9.070;2022-07-03T06:16:25;23.50;99.90
11264;DHT22;5689;48.798;9.070;2022-07-03T06:18:54;23.40;99.90
11264;DHT22;5689;48.798;9.070;2022-07-03T06:21:22;23.20;99.90
11264;DHT22;5689;48.798;9.070;2022-07-03T06:23:53;23.40;99.90
11264;DHT22;5689;48.798;9.070;2022-07-03T06:26:21;23.50;99.90
11264;DHT22;5689;48.798;9.070;2022-07-03T06:28:49;23.90;98.20
11264;DHT22;5689;48.798;9.070;2022-07-03T06:31:19;24.10;98.00
11264;DHT22;5689;48.798;9.070;2022-07-03T06:33:47;24.60;96.00
11264;DHT22;5689;48.798;9.070;2022-07-03T06:36:16;25.00;95.80
11264;DHT22;5689;48.798;9.070;2022-07-03T06:38:44;25.40;93.50
11264;DHT22;5689;48.798;9.070;2022-07-03T06:41:13;25.50;93.10
11264;DHT22;5689;48.798;9.070;2022-07-03T06:43:41;26.00;92.80
11264;DHT22;5689;48.798;9.070;2022-07-03T06:46:09;26.50;91.10
11264;DHT22;5689;48.798;9.070;2022-07-03T06:48:37;26.80;90.40
11264;DHT22;5689;48.798;9.070;2022-07-03T06:51:05;27.20;85.70
11264;DHT22;5689;48.798;9.070;2022-07-03T06:53:35;26.60;85.40
11264;DHT22;5689;48.798;9.070;2022-07-03T06:56:03;26.50;80.90
11264;DHT22;5689;48.798;9.070;2022-07-03T06:58:31;26.50;85.20
11264;DHT22;5689;48.798;9.070;2022-07-03T07:00:59;27.20;82.50
11264;DHT22;5689;48.798;9.070;2022-07-03T07:03:28;27.40;83.30
11264;DHT22;5689;48.798;9.070;2022-07-03T07:05:56;27.00;84.20
11264;DHT22;5689;48.798;9.070;2022-07-03T07:08:24;26.90;85.90
11264;DHT22;5689;48.798;9.070;2022-07-03T07:10:54;27.40;84.30
11264;DHT22;5689;48.798;9.070;2022-07-03T07:13:22;28.20;81.50
11264;DHT22;5689;48.798;9.070;2022-07-03T07:15:50;28.00;80.80
11264;DHT22;5689;48.798;9.070;2022-07-03T07:18:18;28.50;79.00
11264;DHT22;5689;48.798;9.070;2022-07-03T07:20:47;29.00;77.40
11264;DHT22;5689;48.798;9.070;2022-07-03T07:23:15;29.00;75.00
11264;DHT22;5689;48.798;9.070;2022-07-03T07:25:43;28.90;76.00
11264;DHT22;5689;48.798;9.070;2022-07-03T07:28:12;28.70;78.20
11264;DHT22;5689;48.798;9.070;2022-07-03T07:30:40;28.60;78.40
11264;DHT22;5689;48.798;9.070;2022-07-03T07:33:09;28.80;78.00
11264;DHT22;5689;48.798;9.070;2022-07-03T07:35:38;28.90;78.90
11264;DHT22;5689;48.798;9.070;2022-07-03T07:38:06;29.30;76.90
11264;DHT22;5689;48.798;9.070;2022-07-03T07:40:34;29.10;77.10
11264;DHT22;5689;48.798;9.070;2022-07-03T07:43:03;28.80;78.40
11264;DHT22;5689;48.798;9.070;2022-07-03T07:45:32;29.50;76.60
11264;DHT22;5689;48.798;9.070;2022-07-03T07:48:00;30.40;75.60
11264;DHT22;5689;48.798;9.070;2022-07-03T07:50:29;30.30;72.20
11264;DHT22;5689;48.798;9.070;2022-07-03T07:52:57;30.10;72.20
11264;DHT22;5689;48.798;9.070;2022-07-03T07:55:25;31.00;71.70
11264;DHT22;5689;48.798;9.070;2022-07-03T07:57:53;31.30;71.20
11264;DHT22;5689;48.798;9.070;2022-07-03T08:00:21;31.40;67.50
11264;DHT22;5689;48.798;9.070;2022-07-03T08:02:51;31.40;66.90
11264;DHT22;5689;48.798;9.070;2022-07-03T08:05:48;31.30;66.70
11264;DHT22;5689;48.798;9.070;2022-07-03T08:08:21;31.40;68.90
11264;DHT22;5689;48.798;9.070;2022-07-03T08:10:54;31.10;66.80
11264;DHT22;5689;48.798;9.070;2022-07-03T08:13:32;31.60;67.00
11264;DHT22;5689;48.798;9.070;2022-07-03T08:16:01;31.60;67.60
11264;DHT22;5689;48.798;9.070;2022-07-03T08:18:30;31.20;68.90
11264;DHT22;5689;48.798;9.070;2022-07-03T08:21:01;31.50;68.00
11264;DHT22;5689;48.798;9.070;2022-07-03T08:23:29;31.80;67.60
11264;DHT22;5689;48.798;9.070;2022-07-03T08:25:57;32.60;65.20
11264;DHT22;5689;48.798;9.070;2022-07-03T08:28:26;31.80;67.30
11264;DHT22;5689;48.798;9.070;2022-07-03T08:30:55;32.30;62.50
11264;DHT22;5689;48.798;9.070;2022-07-03T08:33:23;32.90;63.30
11264;DHT22;5689;48.798;9.070;2022-07-03T08:35:52;32.20;63.10
11264;DHT22;5689;48.798;9.070;2022-07-03T08:38:27;32.40;63.80
11264;DHT22;5689;48.798;9.070;2022-07-03T08:40:58;32.90;62.80
11264;DHT22;5689;48.798;9.070;2022-07-03T08:43:27;33.00;66.10
11264;DHT22;5689;48.798;9.070;2022-07-03T08:45:57;33.10;59.20
11264;DHT22;5689;48.798;9.070;2022-07-03T08:48:27;33.90;58.50
11264;DHT22;5689;48.798;9.070;2022-07-03T08:50:59;33.70;58.10
11264;DHT22;5689;48.798;9.070;2022-07-03T08:53:28;34.50;57.50
11264;DHT22;5689;48.798;9.070;2022-07-03T08:55:56;34.50;54.80
11264;DHT22;5689;48.798;9.070;2022-07-03T08:58:25;33.70;55.70
11264;DHT22;5689;48.798;9.070;2022-07-03T09:00:58;33.60;56.60
11264;DHT22;5689;48.798;9.070;2022-07-03T09:03:26;33.30;57.30
11264;DHT22;5689;48.798;9.070;2022-07-03T09:05:57;34.00;57.30
11264;DHT22;5689;48.798;9.070;2022-07-03T09:08:26;34.40;51.40
11264;DHT22;5689;48.798;9.070;2022-07-03T09:10:55;33.50;52.80
11264;DHT22;5689;48.798;9.070;2022-07-03T09:13:23;33.30;54.10
11264;DHT22;5689;48.798;9.070;2022-07-03T09:15:51;33.80;55.50
11264;DHT22;5689;48.798;9.070;2022-07-03T09:18:36;34.40;55.70
11264;DHT22;5689;48.798;9.070;2022-07-03T09:21:06;35.60;51.20
11264;DHT22;5689;48.798;9.070;2022-07-03T09:23:37;35.60;52.40
11264;DHT22;5689;48.798;9.070;2022-07-03T09:26:21;35.70;53.20
11264;DHT22;5689;48.798;9.070;2022-07-03T09:28:53;35.20;52.00
11264;DHT22;5689;48.798;9.070;2022-07-03T09:31:23;35.90;51.40
11264;DHT22;5689;48.798;9.070;2022-07-03T09:33:57;34.60;56.20
11264;DHT22;5689;48.798;9.070;2022-07-03T09:36:42;34.00;53.60
11264;DHT22;5689;48.798;9.070;2022-07-03T09:39:14;34.30;52.50
11264;DHT22;5689;48.798;9.070;2022-07-03T09:41:54;33.60;52.30
11264;DHT22;5689;48.798;9.070;2022-07-03T09:44:29;35.00;55.50
11264;DHT22;5689;48.798;9.070;2022-07-03T09:47:12;35.40;54.90
11264;DHT22;5689;48.798;9.070;2022-07-03T09:49:45;35.00;52.30
11264;DHT22;5689;48.798;9.070;2022-07-03T09:52:34;33.60;53.90
11264;DHT22;5689;48.798;9.070;2022-07-03T09:55:13;33.70;53.40
11264;DHT22;5689;48.798;9.070;2022-07-03T09:57:44;33.50;55.20
11264;DHT22;5689;48.798;9.070;2022-07-03T10:00:17;34.30;54.80
11264;DHT22;5689;48.798;9.070;2022-07-03T10:02:52;34.10;55.10
11264;DHT22;5689;48.798;9.070;2022-07-03T10:05:24;35.90;52.80
11264;DHT22;5689;48.798;9.070;2022-07-03T10:07:57;36.00;54.20
11264;DHT22;5689;48.798;9.070;2022-07-03T10:10:27;34.80;51.90
11264;DHT22;5689;48.798;9.070;2022-07-03T10:12:56;33.30;54.90
11264;DHT22;5689;48.798;9.070;2022-07-03T10:15:24;34.20;54.00
11264;DHT22;5689;48.798;9.070;2022-07-03T10:17:54;34.10;53.90
11264;DHT22;5689;48.798;9.070;2022-07-03T10:20:27;33.70;56.20
11264;DHT22;5689;48.798;9.070;2022-07-03T10:22:57;33.10;58.30
11264;DHT22;5689;48.798;9.070;2022-07-03T10:25:25;34.60;52.60
11264;DHT22;5689;48.798;9.070;2022-07-03T10:27:53;35.70;52.10
11264;DHT22;5689;48.798;9.070;2022-07-03T10:30:25;36.10;52.90
11264;DHT22;5689;48.798;9.070;2022-07-03T10:32:55;36.80;49.80
11264;DHT22;5689;48.798;9.070;2022-07-03T10:35:27;35.90;55.30
11264;DHT22;5689;48.798;9.070;2022-07-03T10:38:12;35.30;52.50
11264;DHT22;5689;48.798;9.070;2022-07-03T10:40:50;35.00;54.20
11264;DHT22;5689;48.798;9.070;2022-07-03T10:43:38;35.20;55.30
11264;DHT22;5689;48.798;9.070;2022-07-03T10:46:25;35.00;53.90
11264;DHT22;5689;48.798;9.070;2022-07-03T10:49:02;35.10;54.30
11264;DHT22;5689;48.798;9.070;2022-07-03T10:51:32;34.70;55.20
11264;DHT22;5689;48.798;9.070;2022-07-03T10:54:21;35.80;53.00
11264;DHT22;5689;48.798;9.070;2022-07-03T10:57:09;35.10;52.00
11264;DHT22;5689;48.798;9.070;2022-07-03T11:00:04;35.10;55.00
11264;DHT22;5689;48.798;9.070;2022-07-03T11:02:34;36.70;51.60
11264;DHT22;5689;48.798;9.070;2022-07-03T11:05:11;38.50;48.50
11264;DHT22;5689;48.798;9.070;2022-07-03T11:07:44;40.70;46.60
11264;DHT22;5689;48.798;9.070;2022-07-03T11:10:35;37.60;52.30
11264;DHT22;5689;48.798;9.070;2022-07-03T11:13:09;37.80;49.60
11264;DHT22;5689;48.798;9.070;2022-07-03T11:15:40;38.80;49.30
11264;DHT22;5689;48.798;9.070;2022-07-03T11:18:19;37.80;51.60
11264;DHT22;5689;48.798;9.070;2022-07-03T11:26:44;37.40;52.60
11264;DHT22;5689;48.798;9.070;2022-07-03T11:29:26;37.60;51.30
11264;DHT22;5689;48.798;9.070;2022-07-03T11:31:54;37.20;50.80
11264;DHT22;5689;48.798;9.070;2022-07-03T11:34:22;36.20;53.80
11264;DHT22;5689;48.798;9.070;2022-07-03T11:36:51;37.80;51.20
11264;DHT22;5689;48.798;9.070;2022-07-03T11:39:19;36.10;53.60
11264;DHT22;5689;48.798;9.070;2022-07-03T11:41:49;35.50;55.80
11264;DHT22;5689;48.798;9.070;2022-07-03T11:44:19;35.80;55.10
11264;DHT22;5689;48.798;9.070;2022-07-03T11:46:49;34.80;54.90
11264;DHT22;5689;48.798;9.070;2022-07-03T11:49:19;35.30;54.90
11264;DHT22;5689;48.798;9.070;2022-07-03T11:51:56;34.50;54.20
11264;DHT22;5689;48.798;9.070;2022-07-03T11:54:26;35.90;53.00
11264;DHT22;5689;48.798;9.070;2022-07-03T11:56:59;37.50;49.90
11264;DHT22;5689;48.798;9.070;2022-07-03T11:59:27;37.80;51.70
11264;DHT22;5689;48.798;9.070;2022-07-03T12:02:01;38.90;50.40
11264;DHT22;5689;48.798;9.070;2022-07-03T12:04:31;36.20;52.30
11264;DHT22;5689;48.798;9.070;2022-07-03T12:06:59;35.70;54.40
11264;DHT22;5689;48.798;9.070;2022-07-03T12:09:30;36.50;53.70
11264;DHT22;5689;48.798;9.070;2022-07-03T12:12:03;35.40;55.10
11264;DHT22;5689;48.798;9.070;2022-07-03T12:14:35;37.00;51.50
11264;DHT22;5689;48.798;9.070;2022-07-03T12:17:04;39.90;49.40
11264;DHT22;5689;48.798;9.070;2022-07-03T12:19:32;39.30;48.70
11264;DHT22;5689;48.798;9.070;2022-07-03T12:22:01;38.40;50.20
11264;DHT22;5689;48.798;9.070;2022-07-03T12:24:29;37.90;50.40
11264;DHT22;5689;48.798;9.070;2022-07-03T12:27:03;36.30;50.10
11264;DHT22;5689;48.798;9.070;2022-07-03T12:29:31;37.90;51.00
11264;DHT22;5689;48.798;9.070;2022-07-03T12:32:00;37.50;52.40
11264;DHT22;5689;48.798;9.070;2022-07-03T12:34:28;36.80;52.60
11264;DHT22;5689;48.798;9.070;2022-07-03T12:36:58;38.20;50.20
11264;DHT22;5689;48.798;9.070;2022-07-03T12:39:40;37.80;49.40
11264;DHT22;5689;48.798;9.070;2022-07-03T12:42:17;38.20;50.10
11264;DHT22;5689;48.798;9.070;2022-07-03T12:44:56;38.90;50.00
11264;DHT22;5689;48.798;9.070;2022-07-03T12:47:25;36.90;53.40
11264;DHT22;5689;48.798;9.070;2022-07-03T12:49:55;37.20;52.30
11264;DHT22;5689;48.798;9.070;2022-07-03T12:52:24;37.90;51.90
11264;DHT22;5689;48.798;9.070;2022-07-03T12:54:52;40.30;47.00
11264;DHT22;5689;48.798;9.070;2022-07-03T12:57:23;37.70;48.70
11264;DHT22;5689;48.798;9.070;2022-07-03T13:00:10;40.70;46.00
11264;DHT22;5689;48.798;9.070;2022-07-03T13:02:40;41.50;45.30
11264;DHT22;5689;48.798;9.070;2022-07-03T13:05:16;38.80;48.60
11264;DHT22;5689;48.798;9.070;2022-07-03T13:07:45;39.60;48.90
11264;DHT22;5689;48.798;9.070;2022-07-03T13:10:16;38.20;50.40
11264;DHT22;5689;48.798;9.070;2022-07-03T13:12:50;38.60;49.10
11264;DHT22;5689;48.798;9.070;2022-07-03T13:15:19;36.90;50.00
11264;DHT22;5689;48.798;9.070;2022-07-03T13:18:05;36.70;51.20
11264;DHT22;5689;48.798;9.070;2022-07-03T13:20:34;36.90;50.80
11264;DHT22;5689;48.798;9.070;2022-07-03T13:23:03;38.30;49.70
11264;DHT22;5689;48.798;9.070;2022-07-03T13:25:37;38.80;49.90
11264;DHT22;5689;48.798;9.070;2022-07-03T13:28:09;38.00;49.50
11264;DHT22;5689;48.798;9.070;2022-07-03T13:30:38;36.90;52.00
11264;DHT22;5689;48.798;9.070;2022-07-03T13:33:07;35.90;53.70
11264;DHT22;5689;48.798;9.070;2022-07-03T13:35:36;36.40;54.40
11264;DHT22;5689;48.798;9.070;2022-07-03T13:38:04;37.80;50.40
11264;DHT22;5689;48.798;9.070;2022-07-03T13:40:32;39.90;47.80
11264;DHT22;5689;48.798;9.070;2022-07-03T13:43:01;38.40;51.40
11264;DHT22;5689;48.798;9.070;2022-07-03T13:45:30;38.10;49.60
11264;DHT22;5689;48.798;9.070;2022-07-03T13:47:58;38.00;49.80
11264;DHT22;5689;48.798;9.070;2022-07-03T13:50:26;35.90;53.20
11264;DHT22;5689;48.798;9.070;2022-07-03T13:52:57;35.80;54.00
11264;DHT22;5689;48.798;9.070;2022-07-03T13:55:25;38.00;51.70
11264;DHT22;5689;48.798;9.070;2022-07-03T13:57:53;35.60;52.60
11264;DHT22;5689;48.798;9.070;2022-07-03T14:00:21;35.90;53.10
11264;DHT22;5689;48.798;9.070;2022-07-03T14:02:50;36.20;51.80
11264;DHT22;5689;48.798;9.070;2022-07-03T14:05:18;39.20;50.80
11264;DHT22;5689;48.798;9.070;2022-07-03T14:07:46;38.00;51.50
11264;DHT22;5689;48.798;9.070;2022-07-03T14:10:15;37.10;52.50
11264;DHT22;5689;48.798;9.070;2022-07-03T14:12:43;36.40;52.60
11264;DHT22;5689;48.798;9.070;2022-07-03T14:15:11;36.10;52.80
11264;DHT22;5689;48.798;9.070;2022-07-03T14:17:40;36.40;53.50
11264;DHT22;5689;48.798;9.070;2022-07-03T14:20:11;36.10;53.10
11264;DHT22;5689;48.798;9.070;2022-07-03T14:22:42;36.20;53.40
11264;DHT22;5689;48.798;9.070;2022-07-03T14:25:13;37.70;51.80
11264;DHT22;5689;48.798;9.070;2022-07-03T14:27:41;36.70;51.10
11264;DHT22;5689;48.798;9.070;2022-07-03T14:30:26;36.80;51.80
11264;DHT22;5689;48.798;9.070;2022-07-03T14:33:15;36.50;51.60
11264;DHT22;5689;48.798;9.070;2022-07-03T14:35:56;36.30;53.40
11264;DHT22;5689;48.798;9.070;2022-07-03T14:38:28;37.70;51.10
11264;DHT22;5689;48.798;9.070;2022-07-03T14:40:56;35.30;52.90
11264;DHT22;5689;48.798;9.070;2022-07-03T14:43:24;34.40;54.40
11264;DHT22;5689;48.798;9.070;2022-07-03T14:45:52;35.50;53.20
11264;DHT22;5689;48.798;9.070;2022-07-03T14:48:20;35.80;52.20
11264;DHT22;5689;48.798;9.070;2022-07-03T14:50:48;36.80;51.50
11264;DHT22;5689;48.798;9.070;2022-07-03T14:53:18;36.30;51.80
11264;DHT22;5689;48.798;9.070;2022-07-03T14:55:47;34.30;54.40
11264;DHT22;5689;48.798;9.070;2022-07-03T14:58:16;33.90;54.20
11264;DHT22;5689;48.798;9.070;2022-07-03T15:00:47;34.00;54.00
11264;DHT22;5689;48.798;9.070;2022-07-03T15:03:18;34.00;54.20
11264;DHT22;5689;48.798;9.070;2022-07-03T15:05:47;34.40;53.50
11264;DHT22;5689;48.798;9.070;2022-07-03T15:08:48;33.10;54.60
11264;DHT22;5689;48.798;9.070;2022-07-03T15:11:21;32.10;57.70
11264;DHT22;5689;48.798;9.070;2022-07-03T15:14:07;31.70;57.40
11264;DHT22;5689;48.798;9.070;2022-07-03T15:16:38;31.60;57.70
11264;DHT22;5689;48.798;9.070;2022-07-03T15:19:07;31.10;58.80
11264;DHT22;5689;48.798;9.070;2022-07-03T15:21:37;31.40;57.60
11264;DHT22;5689;48.798;9.070;2022-07-03T15:26:44;31.60;57.90
11264;DHT22;5689;48.798;9.070;2022-07-03T15:29:14;31.30;57.90
11264;DHT22;5689;48.798;9.070;2022-07-03T15:31:43;31.00;58.50
11264;DHT22;5689;48.798;9.070;2022-07-03T15:34:11;31.00;59.50
11264;DHT22;5689;48.798;9.070;2022-07-03T15:36:44;31.00;59.00
11264;DHT22;5689;48.798;9.070;2022-07-03T15:39:17;30.80;58.70
11264;DHT22;5689;48.798;9.070;2022-07-03T15:42:00;30.60;59.60
11264;DHT22;5689;48.798;9.070;2022-07-03T15:44:33;31.00;59.30
11264;DHT22;5689;48.798;9.070;2022-07-03T15:47:14;31.60;57.40
11264;DHT22;5689;48.798;9.070;2022-07-03T15:49:46;30.70;58.20
11264;DHT22;5689;48.798;9.070;2022-07-03T15:52:18;30.60;59.90
11264;DHT22;5689;48.798;9.070;2022-07-03T15:54:55;30.50;59.10
11264;DHT22;5689;48.798;9.070;2022-07-03T15:57:31;30.50;59.80
11264;DHT22;5689;48.798;9.070;2022-07-03T16:00:03;30.50;59.00
11264;DHT22;5689;48.798;9.070;2022-07-03T16:02:44;30.40;59.00
11264;DHT22;5689;48.798;9.070;2022-07-03T16:05:17;30.30;60.20
11264;DHT22;5689;48.798;9.070;2022-07-03T16:07:47;30.70;60.30
11264;DHT22;5689;48.798;9.070;2022-07-03T16:10:19;30.00;59.90
11264;DHT22;5689;48.798;9.070;2022-07-03T16:12:51;30.20;60.00
11264;DHT22;5689;48.798;9.070;2022-07-03T16:15:20;30.40;60.70
11264;DHT22;5689;48.798;9.070;2022-07-03T16:17:48;30.10;60.80
11264;DHT22;5689;48.798;9.070;2022-07-03T16:20:21;30.20;60.10
11264;DHT22;5689;48.798;9.070;2022-07-03T16:22:50;29.90;61.80